Date,TemperatureHighF,TemperatureAvgF,TemperatureLowF,DewpointHighF,DewpointAvgF,DewpointLowF,HumidityHigh,HumidityAvg,HumidityLow,PressureMaxIn,PressureMinIn,WindSpeedMaxMPH,WindSpeedAvgMPH,GustSpeedMaxMPH,PrecipitationSumIn
2013-7-1,80,74,60,61,55,50,93,53,38,30.08,30.00,24,4,24,0.04
2013-7-2,80,69,54,61,55,50,96,64,36,30.12,30.06,21,2,21,0.00
2013-7-3,85,70,54,60,54,48,96,61,29,30.15,30.04,14,1,14,0.00
2013-7-4,88,74,60,64,58,54,82,59,34,30.11,30.01,14,1,14,0.04
2013-7-5,89,74,64,64,60,58,82,63,36,30.09,29.98,15,2,15,0.08
2013-7-6,91,77,68,66,62,59,79,61,38,30.08,29.99,6,1,9,0.00
2013-7-7,91,80,70,70,67,62,86,65,41,30.10,30.03,20,2,20,0.00
2013-7-8,94,83,71,73,69,66,84,64,43,30.15,30.07,15,2,15,0.00
2013-7-9,94,85,75,74,71,70,84,64,47,30.15,30.02,21,2,21,0.04
2013-7-10,99,87,77,74,70,67,75,58,41,30.08,29.94,16,1,16,0.00
2013-7-11,94,83,71,76,70,63,93,66,41,30.06,29.96,15,2,15,0.00
2013-7-12,92,85,72,73,68,62,76,57,46,30.10,30.01,14,2,14,0.04
2013-7-13,88,78,67,65,61,56,86,57,41,30.10,30.01,12,2,12,0.00
2013-7-14,87,81,68,64,60,55,81,49,35,30.10,30.02,18,3,18,0.04
2013-7-15,90,79,70,71,67,63,96,67,45,30.22,30.09,18,2,18,0.08
2013-7-16,90,76,68,74,71,67,98,85,53,30.31,30.21,16,1,16,0.04
2013-7-17,92,80,68,74,70,65,99,73,44,30.36,30.23,12,1,12,0.01
2013-7-18,95,88,69,73,70,66,94,55,43,30.26,30.08,14,1,14,0.12
2013-7-19,96,81,71,74,69,66,89,70,40,30.10,29.98,28,1,28,0.00
2013-7-20,94,80,69,75,70,67,94,73,46,30.03,29.89,15,2,15,0.04
2013-7-21,84,76,69,76,72,67,95,86,72,30.01,29.89,10,1,10,0.17
2013-7-22,93,79,70,75,68,63,86,71,46,30.04,29.89,26,3,26,0.02
2013-7-23,97,83,72,78,73,70,95,73,47,29.98,29.85,28,2,28,0.77
2013-7-24,84,75,67,72,70,66,99,83,61,30.05,29.89,26,2,26,0.47
2013-7-25,86,81,68,73,71,66,99,72,52,30.13,30.07,10,1,10,0.00
2013-7-26,74,71,65,71,69,65,99,93,84,30.10,30.03,16,1,16,0.76
2013-7-27,81,71,63,69,65,60,100,82,52,30.10,30.01,14,1,14,0.04
2013-7-28,82,71,64,68,64,60,90,78,57,30.09,30.02,16,2,16,0.00
2013-7-29,86,78,68,74,70,65,94,80,64,30.11,30.03,27,4,27,0.02
2013-7-30,88,79,71,76,73,70,99,84,66,30.09,30.04,22,2,22,0.96
2013-7-31,87,76,71,78,73,70,100,91,67,30.11,30.04,14,1,14,1.91